sensor_id;sensor_type;location;lat;lon;timestamp;pressure;altitude;pressure_sealevel;temperature;humidity
48968;BME280;46511;53.148;8.204;2022-11-20T00:01:57;101312.84;;;3.35;nan
48968;BME280;46511;53.148;8.204;2022-11-20T00:04:28;101308.56;;;3.30;nan
48968;BME280;46511;53.148;8.204;2022-11-20T00:06:59;101305.06;;;3.31;nan
48968;BME280;46511;53.148;8.204;2022-11-20T00:09:30;101319.03;;;3.33;nan
48968;BME280;46511;53.148;8.204;2022-11-20T00:12:02;101307.72;;;3.29;nan
48968;BME280;46511;53.148;8.204;2022-11-20T00:14:28;101307.84;;;3.23;nan
48968;BME280;46511;53.148;8.204;2022-11-20T00:16:59;101304.31;;;3.24;nan
48968;BME280;46511;53.148;8.204;2022-11-20T00:19:31;101311.22;;;3.28;nan
48968;BME280;46511;53.148;8.204;2022-11-20T00:22:02;101307.84;;;3.23;nan
48968;BME280;46511;53.148;8.204;2022-11-20T00:24:33;101303.50;;;3.21;nan
48968;BME280;46511;53.148;8.204;2022-11-20T00:27:04;101301.75;;;3.20;nan
48968;BME280;46511;53.148;8.204;2022-11-20T00:29:35;101298.22;;;3.24;nan
48968;BME280;46511;53.148;8.204;2022-11-20T00:32:07;101298.22;;;3.24;nan
48968;BME280;46511;53.148;8.204;2022-11-20T00:34:38;101306.84;;;3.29;nan
48968;BME280;46511;53.148;8.204;2022-11-20T00:37:09;101296.41;;;3.26;nan
48968;BME280;46511;53.148;8.204;2022-11-20T00:39:41;101306.81;;;3.32;nan
48968;BME280;46511;53.148;8.204;2022-11-20T00:42:12;101304.00;;;3.39;nan
48968;BME280;46511;53.148;8.204;2022-11-20T00:44:43;101295.28;;;3.39;nan
48968;BME280;46511;53.148;8.204;2022-11-20T00:47:14;101295.34;;;3.36;nan
48968;BME280;46511;53.148;8.204;2022-11-20T00:49:46;101309.22;;;3.41;nan
48968;BME280;46511;53.148;8.204;2022-11-20T00:52:17;101301.19;;;3.50;nan
48968;BME280;46511;53.148;8.204;2022-11-20T00:54:48;101304.63;;;3.54;nan
48968;BME280;46511;53.148;8.204;2022-11-20T00:57:19;101309.78;;;3.58;nan
48968;BME280;46511;53.148;8.204;2022-11-20T00:59:51;101301.81;;;3.63;nan
48968;BME280;46511;53.148;8.204;2022-11-20T01:02:22;101300.91;;;3.65;nan
48968;BME280;46511;53.148;8.204;2022-11-20T01:04:53;101293.81;;;3.70;nan
48968;BME280;46511;53.148;8.204;2022-11-20T01:07:24;101297.38;;;3.66;nan
48968;BME280;46511;53.148;8.204;2022-11-20T01:09:56;101297.38;;;3.66;nan
48968;BME280;46511;53.148;8.204;2022-11-20T01:12:27;101306.16;;;3.65;nan
48968;BME280;46511;53.148;8.204;2022-11-20T01:14:58;101306.06;;;3.68;nan
48968;BME280;46511;53.148;8.204;2022-11-20T01:17:30;101300.78;;;3.71;nan
48968;BME280;46511;53.148;8.204;2022-11-20T01:20:02;101298.16;;;3.71;nan
48968;BME280;46511;53.148;8.204;2022-11-20T01:22:33;101297.25;;;3.72;nan
48968;BME280;46511;53.148;8.204;2022-11-20T01:25:05;101294.66;;;3.69;nan
48968;BME280;46511;53.148;8.204;2022-11-20T01:27:36;101286.75;;;3.72;nan
48968;BME280;46511;53.148;8.204;2022-11-20T01:30:07;101279.75;;;3.71;nan
48968;BME280;46511;53.148;8.204;2022-11-20T01:32:39;101287.59;;;3.73;nan
48968;BME280;46511;53.148;8.204;2022-11-20T01:35:10;101288.41;;;3.77;nan
48968;BME280;46511;53.148;8.204;2022-11-20T01:37:42;101287.53;;;3.76;nan
48968;BME280;46511;53.148;8.204;2022-11-20T01:40:13;101279.69;;;3.75;nan
48968;BME280;46511;53.148;8.204;2022-11-20T01:42:51;101281.34;;;3.79;nan
48968;BME280;46511;53.148;8.204;2022-11-20T01:48:51;101272.44;;;3.86;nan
48968;BME280;46511;53.148;8.204;2022-11-20T01:54:15;101262.78;;;3.86;nan
48968;BME280;46511;53.148;8.204;2022-11-20T01:56:51;101258.38;;;3.88;nan
48968;BME280;46511;53.148;8.204;2022-11-20T01:59:27;101259.19;;;3.92;nan
48968;BME280;46511;53.148;8.204;2022-11-20T02:02:00;101256.47;;;3.95;nan
48968;BME280;46511;53.148;8.204;2022-11-20T02:04:31;101260.88;;;3.94;nan
48968;BME280;46511;53.148;8.204;2022-11-20T02:07:03;101264.31;;;3.96;nan
48968;BME280;46511;53.148;8.204;2022-11-20T02:09:35;101258.19;;;3.96;nan
48968;BME280;46511;53.148;8.204;2022-11-20T02:12:07;101250.41;;;3.93;nan
48968;BME280;46511;53.148;8.204;2022-11-20T02:14:58;101242.63;;;3.87;nan
48968;BME280;46511;53.148;8.204;2022-11-20T02:17:29;101247.88;;;3.87;nan
48968;BME280;46511;53.148;8.204;2022-11-20T02:20:01;101240.91;;;3.86;nan
48968;BME280;46511;53.148;8.204;2022-11-20T02:22:35;101240.03;;;3.85;nan
48968;BME280;46511;53.148;8.204;2022-11-20T02:25:14;101228.59;;;3.88;nan
48968;BME280;46511;53.148;8.204;2022-11-20T02:27:46;101233.91;;;3.85;nan
48968;BME280;46511;53.148;8.204;2022-11-20T02:30:18;101234.72;;;3.88;nan
48968;BME280;46511;53.148;8.204;2022-11-20T02:32:50;101240.03;;;3.85;nan
48968;BME280;46511;53.148;8.204;2022-11-20T02:37:53;101244.41;;;3.86;nan
48968;BME280;46511;53.148;8.204;2022-11-20T02:40:25;101246.06;;;3.90;nan
48968;BME280;46511;53.148;8.204;2022-11-20T02:42:57;101235.44;;;3.95;nan
48968;BME280;46511;53.148;8.204;2022-11-20T02:45:28;101228.47;;;3.94;nan
48968;BME280;46511;53.148;8.204;2022-11-20T02:47:59;101224.28;;;3.85;nan
48968;BME280;46511;53.148;8.204;2022-11-20T02:50:26;101216.50;;;3.81;nan
48968;BME280;46511;53.148;8.204;2022-11-20T02:52:57;101216.56;;;3.78;nan
48968;BME280;46511;53.148;8.204;2022-11-20T02:55:28;101217.53;;;3.73;nan
48968;BME280;46511;53.148;8.204;2022-11-20T02:58:00;101222.78;;;3.73;nan
48968;BME280;46511;53.148;8.204;2022-11-20T03:00:31;101218.44;;;3.72;nan
48968;BME280;46511;53.148;8.204;2022-11-20T03:03:02;101212.41;;;3.67;nan
48968;BME280;46511;53.148;8.204;2022-11-20T03:05:34;101208.94;;;3.65;nan
48968;BME280;46511;53.148;8.204;2022-11-20T03:08:05;101202.00;;;3.63;nan
48968;BME280;46511;53.148;8.204;2022-11-20T03:10:36;101189.97;;;3.53;nan
48968;BME280;46511;53.148;8.204;2022-11-20T03:13:07;101198.63;;;3.56;nan
48968;BME280;46511;53.148;8.204;2022-11-20T03:15:39;101192.47;;;3.57;nan
48968;BME280;46511;53.148;8.204;2022-11-20T03:18:10;101200.22;;;3.63;nan
48968;BME280;46511;53.148;8.204;2022-11-20T03:20:41;101198.69;;;3.53;nan
48968;BME280;46511;53.148;8.204;2022-11-20T03:23:13;101192.53;;;3.54;nan
48968;BME280;46511;53.148;8.204;2022-11-20T03:25:44;101189.97;;;3.53;nan
48968;BME280;46511;53.148;8.204;2022-11-20T03:28:15;101176.88;;;3.51;nan
48968;BME280;46511;53.148;8.204;2022-11-20T03:30:47;101173.53;;;3.43;nan
48968;BME280;46511;53.148;8.204;2022-11-20T03:33:18;101174.44;;;3.40;nan
48968;BME280;46511;53.148;8.204;2022-11-20T03:35:49;101176.13;;;3.44;nan
48968;BME280;46511;53.148;8.204;2022-11-20T03:38:21;101183.97;;;3.46;nan
48968;BME280;46511;53.148;8.204;2022-11-20T03:40:57;101178.63;;;3.49;nan
48968;BME280;46511;53.148;8.204;2022-11-20T03:43:29;101175.16;;;3.49;nan
48968;BME280;46511;53.148;8.204;2022-11-20T03:46:00;101169.84;;;3.50;nan
48968;BME280;46511;53.148;8.204;2022-11-20T03:48:32;101160.13;;;3.55;nan
48968;BME280;46511;53.148;8.204;2022-11-20T03:51:14;101159.16;;;3.59;nan
48968;BME280;46511;53.148;8.204;2022-11-20T03:53:44;101150.44;;;3.57;nan
48968;BME280;46511;53.148;8.204;2022-11-20T03:56:17;101162.63;;;3.61;nan
48968;BME280;46511;53.148;8.204;2022-11-20T03:58:50;101159.03;;;3.65;nan
48968;BME280;46511;53.148;8.204;2022-11-20T04:01:23;101158.16;;;3.65;nan
48968;BME280;46511;53.148;8.204;2022-11-20T04:03:56;101141.63;;;3.61;nan
48968;BME280;46511;53.148;8.204;2022-11-20T04:06:29;101143.53;;;3.53;nan
48968;BME280;46511;53.148;8.204;2022-11-20T04:09:02;101158.31;;;3.57;nan
48968;BME280;46511;53.148;8.204;2022-11-20T04:11:35;101165.13;;;3.66;nan
48968;BME280;46511;53.148;8.204;2022-11-20T04:14:11;101172.94;;;3.70;nan
48968;BME280;46511;53.148;8.204;2022-11-20T04:16:44;101169.31;;;3.75;nan
48968;BME280;46511;53.148;8.204;2022-11-20T04:19:16;101169.25;;;3.78;nan
48968;BME280;46511;53.148;8.204;2022-11-20T04:21:47;101168.34;;;3.80;nan
48968;BME280;46511;53.148;8.204;2022-11-20T04:24:18;101169.19;;;3.81;nan
48968;BME280;46511;53.148;8.204;2022-11-20T04:26:50;101162.13;;;3.83;nan
48968;BME280;46511;53.148;8.204;2022-11-20T04:29:21;101161.19;;;3.85;nan
48968;BME280;46511;53.148;8.204;2022-11-20T04:31:52;101157.63;;;3.88;nan
48968;BME280;46511;53.148;8.204;2022-11-20T04:34:23;101159.34;;;3.90;nan
48968;BME280;46511;53.148;8.204;2022-11-20T04:36:55;101152.25;;;3.94;nan
48968;BME280;46511;53.148;8.204;2022-11-20T04:39:26;101148.66;;;3.98;nan
48968;BME280;46511;53.148;8.204;2022-11-20T04:41:57;101149.47;;;4.00;nan
48968;BME280;46511;53.148;8.204;2022-11-20T04:44:47;101152.94;;;4.02;nan
48968;BME280;46511;53.148;8.204;2022-11-20T04:47:18;101147.75;;;3.99;nan
48968;BME280;46511;53.148;8.204;2022-11-20T04:49:50;101147.63;;;4.04;nan
48968;BME280;46511;53.148;8.204;2022-11-20T04:52:21;101139.66;;;4.07;nan
48968;BME280;46511;53.148;8.204;2022-11-20T04:54:52;101143.16;;;4.07;nan
48968;BME280;46511;53.148;8.204;2022-11-20T04:57:24;101139.59;;;4.10;nan
48968;BME280;46511;53.148;8.204;2022-11-20T04:59:55;101130.78;;;4.12;nan
48968;BME280;46511;53.148;8.204;2022-11-20T05:02:26;101136.06;;;4.11;nan
48968;BME280;46511;53.148;8.204;2022-11-20T05:04:58;101133.53;;;4.08;nan
48968;BME280;46511;53.148;8.204;2022-11-20T05:07:29;101137.06;;;4.05;nan
48968;BME280;46511;53.148;8.204;2022-11-20T05:10:00;101136.22;;;4.05;nan
48968;BME280;46511;53.148;8.204;2022-11-20T05:12:31;101133.53;;;4.06;nan
48968;BME280;46511;53.148;8.204;2022-11-20T05:15:03;101137.06;;;4.05;nan
48968;BME280;46511;53.148;8.204;2022-11-20T05:17:34;101135.34;;;4.04;nan
48968;BME280;46511;53.148;8.204;2022-11-20T05:20:05;101140.53;;;4.07;nan
48968;BME280;46511;53.148;8.204;2022-11-20T05:22:37;101130.09;;;4.04;nan
48968;BME280;46511;53.148;8.204;2022-11-20T05:25:09;101137.06;;;4.05;nan
48968;BME280;46511;53.148;8.204;2022-11-20T05:27:40;101140.56;;;4.06;nan
48968;BME280;46511;53.148;8.204;2022-11-20T05:30:12;101125.66;;;4.06;nan
48968;BME280;46511;53.148;8.204;2022-11-20T05:32:44;101127.38;;;4.07;nan
48968;BME280;46511;53.148;8.204;2022-11-20T05:35:15;101115.22;;;4.03;nan
48968;BME280;46511;53.148;8.204;2022-11-20T05:37:46;101118.94;;;3.94;nan
48968;BME280;46511;53.148;8.204;2022-11-20T05:40:17;101115.66;;;3.85;nan
48968;BME280;46511;53.148;8.204;2022-11-20T05:42:49;101113.03;;;3.85;nan
48968;BME280;46511;53.148;8.204;2022-11-20T05:45:20;101118.28;;;3.85;nan
48968;BME280;46511;53.148;8.204;2022-11-20T05:47:51;101112.25;;;3.81;nan
48968;BME280;46511;53.148;8.204;2022-11-20T05:50:22;101099.16;;;3.78;nan
48968;BME280;46511;53.148;8.204;2022-11-20T05:52:54;101103.59;;;3.76;nan
48968;BME280;46511;53.148;8.204;2022-11-20T05:55:26;101099.38;;;3.70;nan
48968;BME280;46511;53.148;8.204;2022-11-20T05:57:57;101090.72;;;3.65;nan
48968;BME280;46511;53.148;8.204;2022-11-20T06:00:29;101089.06;;;3.61;nan
48968;BME280;46511;53.148;8.204;2022-11-20T06:02:55;101087.47;;;3.54;nan
48968;BME280;46511;53.148;8.204;2022-11-20T06:05:26;101075.47;;;3.44;nan
48968;BME280;46511;53.148;8.204;2022-11-20T06:07:57;101081.50;;;3.48;nan
48968;BME280;46511;53.148;8.204;2022-11-20T06:10:31;101084.72;;;3.59;nan
48968;BME280;46511;53.148;8.204;2022-11-20T06:13:02;101088.16;;;3.62;nan
48968;BME280;46511;53.148;8.204;2022-11-20T06:15:33;101083.75;;;3.64;nan
48968;BME280;46511;53.148;8.204;2022-11-20T06:18:04;101081.19;;;3.60;nan
48968;BME280;46511;53.148;8.204;2022-11-20T06:20:36;101083.91;;;3.57;nan
48968;BME280;46511;53.148;8.204;2022-11-20T06:23:07;101081.41;;;3.52;nan
48968;BME280;46511;53.148;8.204;2022-11-20T06:25:42;101084.91;;;3.53;nan
48968;BME280;46511;53.148;8.204;2022-11-20T06:28:13;101089.13;;;3.58;nan
48968;BME280;46511;53.148;8.204;2022-11-20T06:30:45;101083.94;;;3.55;nan
48968;BME280;46511;53.148;8.204;2022-11-20T06:33:16;101089.13;;;3.58;nan
48968;BME280;46511;53.148;8.204;2022-11-20T06:35:48;101088.22;;;3.59;nan
48968;BME280;46511;53.148;8.204;2022-11-20T06:38:19;101085.75;;;3.53;nan
48968;BME280;46511;53.148;8.204;2022-11-20T06:40:50;101081.41;;;3.52;nan
48968;BME280;46511;53.148;8.204;2022-11-20T06:43:22;101085.75;;;3.53;nan
48968;BME280;46511;53.148;8.204;2022-11-20T06:45:54;101082.31;;;3.51;nan
48968;BME280;46511;53.148;8.204;2022-11-20T06:48:27;101084.06;;;3.49;nan
48968;BME280;46511;53.148;8.204;2022-11-20T06:50:59;101087.41;;;3.57;nan
48968;BME280;46511;53.148;8.204;2022-11-20T06:53:33;101092.53;;;3.63;nan
48968;BME280;46511;53.148;8.204;2022-11-20T06:56:05;101095.09;;;3.65;nan
48968;BME280;46511;53.148;8.204;2022-11-20T06:58:37;101098.72;;;3.61;nan
48968;BME280;46511;53.148;8.204;2022-11-20T07:01:09;101088.91;;;3.67;nan
48968;BME280;46511;53.148;8.204;2022-11-20T07:03:42;101096.69;;;3.72;nan
48968;BME280;46511;53.148;8.204;2022-11-20T07:06:14;101095.00;;;3.69;nan
48968;BME280;46511;53.148;8.204;2022-11-20T07:08:45;101094.13;;;3.70;nan
48968;BME280;46511;53.148;8.204;2022-11-20T07:11:17;101089.78;;;3.68;nan
48968;BME280;46511;53.148;8.204;2022-11-20T07:13:49;101085.41;;;3.67;nan
48968;BME280;46511;53.148;8.204;2022-11-20T07:16:20;101089.81;;;3.66;nan
48968;BME280;46511;53.148;8.204;2022-11-20T07:18:51;101090.75;;;3.64;nan
48968;BME280;46511;53.148;8.204;2022-11-20T07:21:23;101089.78;;;3.68;nan
48968;BME280;46511;53.148;8.204;2022-11-20T07:23:54;101099.28;;;3.73;nan
48968;BME280;46511;53.148;8.204;2022-11-20T07:26:25;101094.00;;;3.75;nan
48968;BME280;46511;53.148;8.204;2022-11-20T07:28:57;101096.53;;;3.80;nan
48968;BME280;46511;53.148;8.204;2022-11-20T07:31:28;101092.13;;;3.79;nan
48968;BME280;46511;53.148;8.204;2022-11-20T07:33:59;101098.31;;;3.78;nan
48968;BME280;46511;53.148;8.204;2022-11-20T07:36:30;101096.53;;;3.80;nan
48968;BME280;46511;53.148;8.204;2022-11-20T07:39:02;101102.66;;;3.79;nan
48968;BME280;46511;53.148;8.204;2022-11-20T07:41:33;101097.25;;;3.85;nan
48968;BME280;46511;53.148;8.204;2022-11-20T07:44:04;101089.94;;;3.99;nan
48968;BME280;46511;53.148;8.204;2022-11-20T07:46:36;101090.56;;;4.07;nan
48968;BME280;46511;53.148;8.204;2022-11-20T07:49:07;101093.19;;;4.07;nan
48968;BME280;46511;53.148;8.204;2022-11-20T07:51:38;101102.00;;;4.06;nan
48968;BME280;46511;53.148;8.204;2022-11-20T07:54:09;101094.47;;;3.92;nan
48968;BME280;46511;53.148;8.204;2022-11-20T07:56:40;101095.28;;;3.94;nan
48968;BME280;46511;53.148;8.204;2022-11-20T07:59:12;101104.84;;;3.98;nan
48968;BME280;46511;53.148;8.204;2022-11-20T08:01:43;101105.66;;;4.00;nan
48968;BME280;46511;53.148;8.204;2022-11-20T08:04:15;101102.91;;;4.05;nan
48968;BME280;46511;53.148;8.204;2022-11-20T08:06:47;101098.63;;;4.01;nan
48968;BME280;46511;53.148;8.204;2022-11-20T08:09:18;101101.22;;;4.03;nan
48968;BME280;46511;53.148;8.204;2022-11-20T08:11:49;101105.63;;;4.02;nan
48968;BME280;46511;53.148;8.204;2022-11-20T08:14:39;101092.72;;;3.91;nan
48968;BME280;46511;53.148;8.204;2022-11-20T08:17:11;101097.25;;;3.85;nan
48968;BME280;46511;53.148;8.204;2022-11-20T08:19:43;101097.53;;;3.74;nan
48968;BME280;46511;53.148;8.204;2022-11-20T08:22:14;101094.38;;;3.58;nan
48968;BME280;46511;53.148;8.204;2022-11-20T08:24:45;101097.13;;;3.54;nan
48968;BME280;46511;53.148;8.204;2022-11-20T08:27:16;101093.63;;;3.53;nan
48968;BME280;46511;53.148;8.204;2022-11-20T08:29:48;101092.53;;;3.63;nan
48968;BME280;46511;53.148;8.204;2022-11-20T08:32:19;101092.22;;;3.76;nan
48968;BME280;46511;53.148;8.204;2022-11-20T08:34:50;101092.13;;;3.79;nan
48968;BME280;46511;53.148;8.204;2022-11-20T08:37:21;101097.34;;;3.82;nan
48968;BME280;46511;53.148;8.204;2022-11-20T08:39:53;101100.19;;;3.72;nan
48968;BME280;46511;53.148;8.204;2022-11-20T08:42:24;101098.56;;;3.67;nan
48968;BME280;46511;53.148;8.204;2022-11-20T08:44:56;101096.97;;;3.61;nan
48968;BME280;46511;53.148;8.204;2022-11-20T08:47:27;101094.16;;;3.67;nan
48968;BME280;46511;53.148;8.204;2022-11-20T08:49:58;101092.44;;;3.66;nan
48968;BME280;46511;53.148;8.204;2022-11-20T08:52:29;101099.38;;;3.70;nan
48968;BME280;46511;53.148;8.204;2022-11-20T08:55:01;101098.50;;;3.70;nan
48968;BME280;46511;53.148;8.204;2022-11-20T08:57:32;101095.66;;;3.79;nan
48968;BME280;46511;53.148;8.204;2022-11-20T09:00:05;101102.31;;;3.94;nan
48968;BME280;46511;53.148;8.204;2022-11-20T09:02:38;101099.59;;;3.97;nan
48968;BME280;46511;53.148;8.204;2022-11-20T09:05:09;101096.03;;;3.99;nan
48968;BME280;46511;53.148;8.204;2022-11-20T09:07:40;101089.94;;;3.99;nan
48968;BME280;46511;53.148;8.204;2022-11-20T09:10:13;101094.34;;;3.97;nan
48968;BME280;46511;53.148;8.204;2022-11-20T09:12:44;101087.16;;;4.04;nan
48968;BME280;46511;53.148;8.204;2022-11-20T09:15:19;101091.41;;;4.09;nan
48968;BME280;46511;53.148;8.204;2022-11-20T09:17:54;101094.72;;;4.17;nan
48968;BME280;46511;53.148;8.204;2022-11-20T09:20:27;101088.00;;;4.40;nan
48968;BME280;46511;53.148;8.204;2022-11-20T09:23:02;101090.13;;;4.58;nan
48968;BME280;46511;53.148;8.204;2022-11-20T09:25:33;101089.31;;;4.56;nan
48968;BME280;46511;53.148;8.204;2022-11-20T09:28:04;101087.06;;;4.73;nan
48968;BME280;46511;53.148;8.204;2022-11-20T09:30:36;101094.97;;;4.73;nan
48968;BME280;46511;53.148;8.204;2022-11-20T09:33:07;101090.63;;;5.03;nan
48968;BME280;46511;53.148;8.204;2022-11-20T09:35:38;101100.47;;;5.26;nan
48968;BME280;46511;53.148;8.204;2022-11-20T09:38:11;101103.00;;;5.29;nan
48968;BME280;46511;53.148;8.204;2022-11-20T09:40:56;101100.56;;;5.23;nan
48968;BME280;46511;53.148;8.204;2022-11-20T09:43:46;101109.91;;;5.04;nan
48968;BME280;46511;53.148;8.204;2022-11-20T09:46:29;101099.34;;;5.05;nan
48968;BME280;46511;53.148;8.204;2022-11-20T09:49:39;101099.91;;;4.85;nan
48968;BME280;46511;53.148;8.204;2022-11-20T09:52:32;101092.53;;;4.67;nan
48968;BME280;46511;53.148;8.204;2022-11-20T09:55:16;101096.78;;;4.71;nan
48968;BME280;46511;53.148;8.204;2022-11-20T09:57:48;101092.06;;;4.82;nan
48968;BME280;46511;53.148;8.204;2022-11-20T10:00:22;101096.53;;;4.80;nan
48968;BME280;46511;53.148;8.204;2022-11-20T10:05:48;101082.66;;;4.75;nan
48968;BME280;46511;53.148;8.204;2022-11-20T10:08:25;101080.31;;;4.96;nan
48968;BME280;46511;53.148;8.204;2022-11-20T10:19:29;101081.94;;;5.00;nan
48968;BME280;46511;53.148;8.204;2022-11-20T10:30:49;101065.19;;;4.71;nan
48968;BME280;46511;53.148;8.204;2022-11-20T10:33:29;101063.31;;;4.76;nan
48968;BME280;46511;53.148;8.204;2022-11-20T10:36:13;101064.88;;;4.83;nan
48968;BME280;46511;53.148;8.204;2022-11-20T10:41:54;101061.47;;;5.09;nan
48968;BME280;46511;53.148;8.204;2022-11-20T10:44:28;101056.56;;;5.27;nan
48968;BME280;46511;53.148;8.204;2022-11-20T10:47:18;101054.41;;;5.39;nan
48968;BME280;46511;53.148;8.204;2022-11-20T10:49:51;101058.22;;;5.29;nan
48968;BME280;46511;53.148;8.204;2022-11-20T10:58:26;101052.31;;;5.51;nan
48968;BME280;46511;53.148;8.204;2022-11-20T11:01:04;101054.13;;;6.03;nan
48968;BME280;46511;53.148;8.204;2022-11-20T11:03:36;101051.19;;;6.12;nan
48968;BME280;46511;53.148;8.204;2022-11-20T11:06:10;101045.09;;;6.37;nan
48968;BME280;46511;53.148;8.204;2022-11-20T11:09:10;101049.25;;;6.42;nan
48968;BME280;46511;53.148;8.204;2022-11-20T11:11:47;101050.84;;;6.71;nan
48968;BME280;46511;53.148;8.204;2022-11-20T11:14:18;101051.81;;;6.45;nan
48968;BME280;46511;53.148;8.204;2022-11-20T11:16:54;101042.72;;;6.29;nan
48968;BME280;46511;53.148;8.204;2022-11-20T11:19:26;101032.56;;;6.42;nan
48968;BME280;46511;53.148;8.204;2022-11-20T11:21:58;101033.25;;;6.72;nan
48968;BME280;46511;53.148;8.204;2022-11-20T11:24:30;101033.06;;;7.00;nan
48968;BME280;46511;53.148;8.204;2022-11-20T11:27:02;101023.50;;;6.74;nan
48968;BME280;46511;53.148;8.204;2022-11-20T11:29:41;101036.19;;;6.87;nan
48968;BME280;46511;53.148;8.204;2022-11-20T11:32:14;101025.06;;;7.25;nan
48968;BME280;46511;53.148;8.204;2022-11-20T11:35:04;101025.03;;;7.70;nan
48968;BME280;46511;53.148;8.204;2022-11-20T11:37:38;101011.25;;;8.04;nan
48968;BME280;46511;53.148;8.204;2022-11-20T11:40:10;101013.78;;;8.48;nan
48968;BME280;46511;53.148;8.204;2022-11-20T11:42:43;101014.09;;;8.61;nan
48968;BME280;46511;53.148;8.204;2022-11-20T11:45:17;101010.88;;;8.54;nan
48968;BME280;46511;53.148;8.204;2022-11-20T11:47:48;101013.94;;;8.45;nan
48968;BME280;46511;53.148;8.204;2022-11-20T11:50:27;101010.34;;;8.46;nan
48968;BME280;46511;53.148;8.204;2022-11-20T11:53:09;101008.63;;;8.45;nan
48968;BME280;46511;53.148;8.204;2022-11-20T11:55:45;101005.53;;;8.34;nan
48968;BME280;46511;53.148;8.204;2022-11-20T12:04:13;101000.56;;;7.43;nan
48968;BME280;46511;53.148;8.204;2022-11-20T12:06:50;100998.84;;;7.84;nan
48968;BME280;46511;53.148;8.204;2022-11-20T12:09:31;100990.66;;;7.70;nan
48968;BME280;46511;53.148;8.204;2022-11-20T12:12:13;100983.53;;;7.92;nan
48968;BME280;46511;53.148;8.204;2022-11-20T12:14:55;100977.53;;;8.09;nan
48968;BME280;46511;53.148;8.204;2022-11-20T12:17:28;100971.63;;;9.91;nan
48968;BME280;46511;53.148;8.204;2022-11-20T12:19:59;100970.88;;;10.56;nan
48968;BME280;46511;53.148;8.204;2022-11-20T12:25:27;100971.16;;;9.47;nan
48968;BME280;46511;53.148;8.204;2022-11-20T12:30:51;100969.66;;;8.67;nan
48968;BME280;46511;53.148;8.204;2022-11-20T12:36:40;100961.50;;;7.71;nan
48968;BME280;46511;53.148;8.204;2022-11-20T12:39:38;100956.41;;;7.45;nan
48968;BME280;46511;53.148;8.204;2022-11-20T12:42:20;100954.19;;;7.56;nan
48968;BME280;46511;53.148;8.204;2022-11-20T12:45:21;100954.09;;;7.59;nan
48968;BME280;46511;53.148;8.204;2022-11-20T12:48:37;100948.34;;;7.48;nan
48968;BME280;46511;53.148;8.204;2022-11-20T12:57:15;100939.66;;;7.66;nan
48968;BME280;46511;53.148;8.204;2022-11-20T13:08:34;100935.38;;;7.84;nan
48968;BME280;46511;53.148;8.204;2022-11-20T13:11:18;100944.31;;;7.61;nan
48968;BME280;46511;53.148;8.204;2022-11-20T13:17:04;100946.66;;;6.58;nan
48968;BME280;46511;53.148;8.204;2022-11-20T13:19:46;100947.50;;;6.35;nan
48968;BME280;46511;53.148;8.204;2022-11-20T13:22:25;100942.97;;;7.29;nan
48968;BME280;46511;53.148;8.204;2022-11-20T13:24:57;100946.16;;;7.80;nan
48968;BME280;46511;53.148;8.204;2022-11-20T13:27:29;100939.09;;;8.60;nan
48968;BME280;46511;53.148;8.204;2022-11-20T13:30:15;100933.84;;;8.40;nan
48968;BME280;46511;53.148;8.204;2022-11-20T13:32:50;100931.84;;;9.37;nan
48968;BME280;46511;53.148;8.204;2022-11-20T13:35:31;100932.19;;;11.00;nan
48968;BME280;46511;53.148;8.204;2022-11-20T13:38:05;100928.63;;;11.77;nan
48968;BME280;46511;53.148;8.204;2022-11-20T13:46:14;100919.59;;;12.38;nan
48968;BME280;46511;53.148;8.204;2022-11-20T13:48:46;100926.97;;;11.44;nan
48968;BME280;46511;53.148;8.204;2022-11-20T13:54:17;100909.59;;;9.76;nan
48968;BME280;46511;53.148;8.204;2022-11-20T13:59:58;100911.75;;;8.59;nan
48968;BME280;46511;53.148;8.204;2022-11-20T14:02:41;100906.97;;;8.68;nan
48968;BME280;46511;53.148;8.204;2022-11-20T14:05:20;100905.25;;;8.85;nan
48968;BME280;46511;53.148;8.204;2022-11-20T14:07:53;100892.63;;;8.14;nan
48968;BME280;46511;53.148;8.204;2022-11-20T14:10:27;100897.34;;;7.66;nan
48968;BME280;46511;53.148;8.204;2022-11-20T14:13:09;100906.34;;;7.42;nan
48968;BME280;46511;53.148;8.204;2022-11-20T14:15:41;100911.41;;;7.04;nan
48968;BME280;46511;53.148;8.204;2022-11-20T14:18:15;100909.16;;;6.72;nan
48968;BME280;46511;53.148;8.204;2022-11-20T14:20:50;100905.41;;;6.32;nan
48968;BME280;46511;53.148;8.204;2022-11-20T14:23:25;100890.56;;;6.05;nan
48968;BME280;46511;53.148;8.204;2022-11-20T14:25:58;100900.16;;;5.82;nan
48968;BME280;46511;53.148;8.204;2022-11-20T14:28:30;100887.88;;;5.81;nan
48968;BME280;46511;53.148;8.204;2022-11-20T14:31:02;100887.09;;;5.79;nan
48968;BME280;46511;53.148;8.204;2022-11-20T14:33:33;100888.31;;;5.69;nan
48968;BME280;46511;53.148;8.204;2022-11-20T14:36:05;100880.22;;;5.49;nan
48968;BME280;46511;53.148;8.204;2022-11-20T14:38:36;100882.59;;;5.31;nan
48968;BME280;46511;53.148;8.204;2022-11-20T14:41:21;100881.16;;;5.21;nan
48968;BME280;46511;53.148;8.204;2022-11-20T14:43:55;100871.31;;;5.26;nan
48968;BME280;46511;53.148;8.204;2022-11-20T14:46:28;100870.81;;;5.15;nan
48968;BME280;46511;53.148;8.204;2022-11-20T14:49:02;100869.31;;;5.08;nan
48968;BME280;46511;53.148;8.204;2022-11-20T14:51:36;100871.63;;;5.17;nan
48968;BME280;46511;53.148;8.204;2022-11-20T14:57:00;100857.53;;;4.92;nan
48968;BME280;46511;53.148;8.204;2022-11-20T14:59:33;100856.03;;;4.84;nan
48968;BME280;46511;53.148;8.204;2022-11-20T15:02:06;100848.03;;;4.87;nan
48968;BME280;46511;53.148;8.204;2022-11-20T15:04:47;100845.50;;;4.84;nan
48968;BME280;46511;53.148;8.204;2022-11-20T15:07:32;100847.97;;;4.61;nan
48968;BME280;46511;53.148;8.204;2022-11-20T15:10:07;100842.94;;;4.55;nan
48968;BME280;46511;53.148;8.204;2022-11-20T15:12:45;100825.59;;;4.48;nan
48968;BME280;46511;53.148;8.204;2022-11-20T15:18:20;100821.53;;;4.38;nan
48968;BME280;46511;53.148;8.204;2022-11-20T15:20:54;100822.75;;;4.26;nan
48968;BME280;46511;53.148;8.204;2022-11-20T15:23:27;100817.91;;;4.12;nan
48968;BME280;46511;53.148;8.204;2022-11-20T15:25:59;100819.81;;;4.07;nan